Delta Virtual Airport Information Service

Paris Orly Airport

ICAO: LFPO Country: France
Latitude: 48.7233 Longitude: 2.37944
Latest Arrival : AFR671 (FMEE-LFPO) Latest Departure : TRA3180 (LFPO-LEMD)


WX CaptureLIVE
Data provided by noaa.gov | Fetched at 14:54:58

METAR : LFPO 091930Z 19008KT 9999 FEW100CB SCT260 29/15 Q1013 TEMPO VRB15G35KT 4000 -TSRA SCT080CB

TAF : LFPO 091700Z 0918/1024 10006KT CAVOK TEMPO 0918/1007 -SHRA SCT120CB PROB40 TEMPO 0918/0921 VRB15G35KT 4000 TSRAGR BKN080CB PROB30 TEMPO 1015/1019 -TSRA SCT100CB


Runway Data for LFPO
Data provided by openaviationdata.com

Runway ID Mag Var Hdg Length Elevation Surface ILS Freq ILS Id ILS Slope
2 -1 19° 7874 ft 291 ft Concrete 110.3 OLN 3
6 -1 62° 11975 ft 291 ft Concrete 108.5 ORE 3
8 -1 75° 10892 ft 291 ft Concrete 108.15 0
24 -1 242° 11975 ft 291 ft Concrete 110.9 OLO 3
26 -1 255° 10892 ft 291 ft Concrete 111.75 OLW 3

Paris Orly Airport, France
Use only for reference purposes



Not for navigational purposes.